sensor_id;sensor_type;location;lat;lon;timestamp;pressure;altitude;pressure_sealevel;temperature;humidity
10638;BME280;47007;49.252;8.904;2022-12-20T00:00:41;100385.03;;;2.82;100.00
10638;BME280;47007;49.252;8.904;2022-12-20T00:01:26;100402.63;;;2.92;100.00
10638;BME280;47007;49.252;8.904;2022-12-20T00:02:08;100407.75;;;2.93;100.00
10638;BME280;47007;49.252;8.904;2022-12-20T00:02:50;100338.16;;;2.57;100.00
10638;BME280;47007;49.252;8.904;2022-12-20T00:03:32;100386.72;;;2.83;100.00
10638;BME280;47007;49.252;8.904;2022-12-20T00:04:13;100398.13;;;2.94;100.00
10638;BME280;47007;49.252;8.904;2022-12-20T00:04:55;100393.72;;;2.83;100.00
10638;BME280;47007;49.252;8.904;2022-12-20T00:05:41;100394.44;;;2.96;100.00
10638;BME280;47007;49.252;8.904;2022-12-20T00:06:23;100397.88;;;2.97;100.00
10638;BME280;47007;49.252;8.904;2022-12-20T00:07:05;100350.03;;;2.72;100.00
10638;BME280;47007;49.252;8.904;2022-12-20T00:07:46;100386.31;;;2.99;100.00
10638;BME280;47007;49.252;8.904;2022-12-20T00:08:28;100367.16;;;2.99;100.00
10638;BME280;47007;49.252;8.904;2022-12-20T00:09:10;100374.31;;;2.97;100.00
10638;BME280;47007;49.252;8.904;2022-12-20T00:09:52;100370.03;;;2.96;100.00
10638;BME280;47007;49.252;8.904;2022-12-20T00:10:38;100384.91;;;2.95;100.00
10638;BME280;47007;49.252;8.904;2022-12-20T00:11:20;100380.34;;;2.97;100.00
10638;BME280;47007;49.252;8.904;2022-12-20T00:12:02;100368.72;;;2.90;100.00
10638;BME280;47007;49.252;8.904;2022-12-20T00:12:44;100386.31;;;2.99;100.00
10638;BME280;47007;49.252;8.904;2022-12-20T00:13:26;100379.66;;;2.95;100.00
10638;BME280;47007;49.252;8.904;2022-12-20T00:14:10;100347.91;;;2.77;100.00
10638;BME280;47007;49.252;8.904;2022-12-20T00:14:52;100369.31;;;2.82;100.00
10638;BME280;47007;49.252;8.904;2022-12-20T00:15:33;100363.97;;;2.73;100.00
10638;BME280;47007;49.252;8.904;2022-12-20T00:16:17;100381.47;;;2.83;100.00
10638;BME280;47007;49.252;8.904;2022-12-20T00:16:59;100363.63;;;2.66;100.00
10638;BME280;47007;49.252;8.904;2022-12-20T00:17:41;100365.16;;;2.58;100.00
10638;BME280;47007;49.252;8.904;2022-12-20T00:18:23;100402.25;;;2.63;100.00
10638;BME280;47007;49.252;8.904;2022-12-20T00:19:05;100389.56;;;2.58;100.00
10638;BME280;47007;49.252;8.904;2022-12-20T00:19:47;100383.34;;;2.48;100.00
10638;BME280;47007;49.252;8.904;2022-12-20T00:20:29;100376.59;;;2.45;100.00
10638;BME280;47007;49.252;8.904;2022-12-20T00:21:12;100374.06;;;2.33;100.00
10638;BME280;47007;49.252;8.904;2022-12-20T00:21:54;100352.66;;;2.28;100.00
10638;BME280;47007;49.252;8.904;2022-12-20T00:22:36;100340.41;;;2.17;100.00
10638;BME280;47007;49.252;8.904;2022-12-20T00:23:18;100370.13;;;2.38;100.00
10638;BME280;47007;49.252;8.904;2022-12-20T00:24:00;100375.88;;;2.43;100.00
10638;BME280;47007;49.252;8.904;2022-12-20T00:24:41;100371.34;;;2.45;100.00
10638;BME280;47007;49.252;8.904;2022-12-20T00:25:23;100374.31;;;2.52;100.00
10638;BME280;47007;49.252;8.904;2022-12-20T00:26:13;100329.50;;;2.34;100.00
10638;BME280;47007;49.252;8.904;2022-12-20T00:26:57;100359.69;;;2.61;100.00
10638;BME280;47007;49.252;8.904;2022-12-20T00:27:39;100367.41;;;2.62;100.00
10638;BME280;47007;49.252;8.904;2022-12-20T00:28:20;100346.38;;;2.52;100.00
10638;BME280;47007;49.252;8.904;2022-12-20T00:29:03;100326.16;;;2.43;100.00
10638;BME280;47007;49.252;8.904;2022-12-20T00:29:45;100367.56;;;2.72;100.00
10638;BME280;47007;49.252;8.904;2022-12-20T00:30:26;100295.94;;;2.28;100.00
10638;BME280;47007;49.252;8.904;2022-12-20T00:31:11;100373.97;;;2.68;100.00
10638;BME280;47007;49.252;8.904;2022-12-20T00:31:53;100354.59;;;2.59;100.00
10638;BME280;47007;49.252;8.904;2022-12-20T00:32:35;100355.88;;;2.65;100.00
10638;BME280;47007;49.252;8.904;2022-12-20T00:33:16;100381.69;;;2.80;100.00
10638;BME280;47007;49.252;8.904;2022-12-20T00:33:59;100379.81;;;2.82;100.00
10638;BME280;47007;49.252;8.904;2022-12-20T00:34:41;100368.81;;;2.88;100.00
10638;BME280;47007;49.252;8.904;2022-12-20T00:35:23;100365.38;;;2.88;100.00
10638;BME280;47007;49.252;8.904;2022-12-20T00:36:06;100358.84;;;2.82;100.00
10638;BME280;47007;49.252;8.904;2022-12-20T00:36:48;100370.63;;;2.88;100.00
10638;BME280;47007;49.252;8.904;2022-12-20T00:37:29;100314.03;;;2.53;100.00
10638;BME280;47007;49.252;8.904;2022-12-20T00:38:11;100360.63;;;2.82;100.00
10638;BME280;47007;49.252;8.904;2022-12-20T00:38:55;100375.50;;;2.81;100.00
10638;BME280;47007;49.252;8.904;2022-12-20T00:39:37;100344.34;;;2.78;100.00
10638;BME280;47007;49.252;8.904;2022-12-20T00:40:19;100324.97;;;2.70;100.00
10638;BME280;47007;49.252;8.904;2022-12-20T00:41:02;100347.28;;;2.85;100.00
10638;BME280;47007;49.252;8.904;2022-12-20T00:41:44;100345.38;;;2.87;100.00
10638;BME280;47007;49.252;8.904;2022-12-20T00:42:27;100353.63;;;2.82;100.00
10638;BME280;47007;49.252;8.904;2022-12-20T00:43:09;100334.72;;;2.68;100.00
10638;BME280;47007;49.252;8.904;2022-12-20T00:43:52;100358.88;;;2.71;100.00
10638;BME280;47007;49.252;8.904;2022-12-20T00:44:36;100348.88;;;2.65;100.00
10638;BME280;47007;49.252;8.904;2022-12-20T00:45:18;100334.00;;;2.55;100.00
10638;BME280;47007;49.252;8.904;2022-12-20T00:46:00;100346.25;;;2.65;100.00
10638;BME280;47007;49.252;8.904;2022-12-20T00:46:46;100348.25;;;2.62;100.00
10638;BME280;47007;49.252;8.904;2022-12-20T00:47:27;100362.78;;;2.66;100.00
10638;BME280;47007;49.252;8.904;2022-12-20T00:48:09;100325.78;;;2.48;100.00
10638;BME280;47007;49.252;8.904;2022-12-20T00:48:52;100353.25;;;2.65;100.00
10638;BME280;47007;49.252;8.904;2022-12-20T00:49:33;100339.47;;;2.51;100.00
10638;BME280;47007;49.252;8.904;2022-12-20T00:50:15;100351.03;;;2.71;100.00
10638;BME280;47007;49.252;8.904;2022-12-20T00:51:02;100350.75;;;2.74;100.00
10638;BME280;47007;49.252;8.904;2022-12-20T00:51:48;100349.91;;;2.74;100.00
10638;BME280;47007;49.252;8.904;2022-12-20T00:52:29;100336.00;;;2.62;100.00
10638;BME280;47007;49.252;8.904;2022-12-20T00:53:11;100323.88;;;2.50;100.00
10638;BME280;47007;49.252;8.904;2022-12-20T00:53:53;100309.75;;;2.41;100.00
10638;BME280;47007;49.252;8.904;2022-12-20T00:54:35;100338.75;;;2.49;100.00
10638;BME280;47007;49.252;8.904;2022-12-20T00:55:17;100341.13;;;2.52;100.00
10638;BME280;47007;49.252;8.904;2022-12-20T00:55:59;100273.47;;;2.14;100.00
10638;BME280;47007;49.252;8.904;2022-12-20T00:56:41;100283.09;;;2.14;100.00
10638;BME280;47007;49.252;8.904;2022-12-20T00:57:23;100340.31;;;2.52;100.00
10638;BME280;47007;49.252;8.904;2022-12-20T00:58:05;100357.66;;;2.53;100.00
10638;BME280;47007;49.252;8.904;2022-12-20T00:58:47;100355.88;;;2.53;100.00
10638;BME280;47007;49.252;8.904;2022-12-20T00:59:28;100359.00;;;2.59;100.00
10638;BME280;47007;49.252;8.904;2022-12-20T01:00:10;100363.00;;;2.63;100.00
10638;BME280;47007;49.252;8.904;2022-12-20T01:00:53;100367.91;;;2.67;100.00
10638;BME280;47007;49.252;8.904;2022-12-20T01:01:37;100381.44;;;2.72;100.00
10638;BME280;47007;49.252;8.904;2022-12-20T01:02:19;100364.09;;;2.71;100.00
10638;BME280;47007;49.252;8.904;2022-12-20T01:03:05;100345.78;;;2.71;100.00
10638;BME280;47007;49.252;8.904;2022-12-20T01:03:48;100365.16;;;2.80;100.00
10638;BME280;47007;49.252;8.904;2022-12-20T01:04:30;100361.94;;;2.76;100.00
10638;BME280;47007;49.252;8.904;2022-12-20T01:05:11;100338.88;;;2.70;100.00
10638;BME280;47007;49.252;8.904;2022-12-20T01:06:00;100351.69;;;2.73;100.00
10638;BME280;47007;49.252;8.904;2022-12-20T01:06:42;100359.31;;;2.76;100.00
10638;BME280;47007;49.252;8.904;2022-12-20T01:07:24;100358.50;;;2.76;100.00
10638;BME280;47007;49.252;8.904;2022-12-20T01:08:06;100319.38;;;2.52;100.00
10638;BME280;47007;49.252;8.904;2022-12-20T01:08:48;100351.03;;;2.71;100.00
10638;BME280;47007;49.252;8.904;2022-12-20T01:09:31;100284.75;;;2.37;100.00
10638;BME280;47007;49.252;8.904;2022-12-20T01:10:12;100358.13;;;2.80;100.00
10638;BME280;47007;49.252;8.904;2022-12-20T01:11:22;100377.53;;;2.89;100.00
10638;BME280;47007;49.252;8.904;2022-12-20T01:12:06;100372.78;;;2.83;100.00
10638;BME280;47007;49.252;8.904;2022-12-20T01:12:48;100375.41;;;2.83;100.00
10638;BME280;47007;49.252;8.904;2022-12-20T01:13:31;100367.66;;;2.81;100.00
10638;BME280;47007;49.252;8.904;2022-12-20T01:14:15;100367.78;;;2.80;100.00
10638;BME280;47007;49.252;8.904;2022-12-20T01:14:57;100369.31;;;2.82;100.00
10638;BME280;47007;49.252;8.904;2022-12-20T01:15:38;100361.22;;;2.85;100.00
10638;BME280;47007;49.252;8.904;2022-12-20T01:16:26;100353.75;;;2.81;100.00
10638;BME280;47007;49.252;8.904;2022-12-20T01:17:08;100343.97;;;2.83;100.00
10638;BME280;47007;49.252;8.904;2022-12-20T01:17:50;100334.81;;;2.77;100.00
10638;BME280;47007;49.252;8.904;2022-12-20T01:18:32;100344.56;;;2.86;100.00
10638;BME280;47007;49.252;8.904;2022-12-20T01:19:15;100356.44;;;3.02;100.00
10638;BME280;47007;49.252;8.904;2022-12-20T01:19:57;100361.44;;;3.05;100.00
10638;BME280;47007;49.252;8.904;2022-12-20T01:20:39;100360.38;;;3.07;100.00
10638;BME280;47007;49.252;8.904;2022-12-20T01:21:22;100355.81;;;3.09;100.00
10638;BME280;47007;49.252;8.904;2022-12-20T01:22:04;100346.56;;;3.05;100.00
10638;BME280;47007;49.252;8.904;2022-12-20T01:22:46;100328.25;;;2.94;100.00
10638;BME280;47007;49.252;8.904;2022-12-20T01:23:28;100320.63;;;2.91;100.00
10638;BME280;47007;49.252;8.904;2022-12-20T01:24:15;100359.50;;;3.18;100.00
10638;BME280;47007;49.252;8.904;2022-12-20T01:24:57;100320.53;;;2.93;100.00
10638;BME280;47007;49.252;8.904;2022-12-20T01:25:38;100353.75;;;3.24;100.00
10638;BME280;47007;49.252;8.904;2022-12-20T01:26:22;100344.50;;;3.20;100.00
10638;BME280;47007;49.252;8.904;2022-12-20T01:27:04;100295.16;;;2.93;100.00
10638;BME280;47007;49.252;8.904;2022-12-20T01:27:45;100348.88;;;3.31;100.00
10638;BME280;47007;49.252;8.904;2022-12-20T01:28:28;100329.88;;;3.17;100.00
10638;BME280;47007;49.252;8.904;2022-12-20T01:29:10;100352.06;;;3.34;100.00
10638;BME280;47007;49.252;8.904;2022-12-20T01:29:52;100355.66;;;3.33;100.00
10638;BME280;47007;49.252;8.904;2022-12-20T01:30:33;100318.66;;;3.15;100.00
10638;BME280;47007;49.252;8.904;2022-12-20T01:31:16;100335.31;;;3.25;100.00
10638;BME280;47007;49.252;8.904;2022-12-20T01:31:59;100360.19;;;3.31;100.00
10638;BME280;47007;49.252;8.904;2022-12-20T01:32:41;100354.13;;;3.31;100.00
10638;BME280;47007;49.252;8.904;2022-12-20T01:33:23;100329.75;;;3.19;100.00
10638;BME280;47007;49.252;8.904;2022-12-20T01:34:05;100347.69;;;3.23;100.00
10638;BME280;47007;49.252;8.904;2022-12-20T01:34:47;100346.03;;;3.22;100.00
10638;BME280;47007;49.252;8.904;2022-12-20T01:35:28;100351.97;;;3.24;100.00
10638;BME280;47007;49.252;8.904;2022-12-20T01:36:12;100341.53;;;3.13;100.00
10638;BME280;47007;49.252;8.904;2022-12-20T01:36:54;100316.09;;;3.04;100.00
10638;BME280;47007;49.252;8.904;2022-12-20T01:37:36;100296.25;;;2.91;100.00
10638;BME280;47007;49.252;8.904;2022-12-20T01:38:18;100331.56;;;3.07;100.00
10638;BME280;47007;49.252;8.904;2022-12-20T01:39:06;100334.38;;;3.15;100.00
10638;BME280;47007;49.252;8.904;2022-12-20T01:39:52;100339.38;;;3.18;100.00
10638;BME280;47007;49.252;8.904;2022-12-20T01:40:33;100342.00;;;3.18;100.00
10638;BME280;47007;49.252;8.904;2022-12-20T01:41:19;100356.06;;;3.17;100.00
10638;BME280;47007;49.252;8.904;2022-12-20T01:42:01;100343.94;;;3.05;100.00
10638;BME280;47007;49.252;8.904;2022-12-20T01:42:43;100336.91;;;3.06;100.00
10638;BME280;47007;49.252;8.904;2022-12-20T01:43:43;100337.63;;;3.08;100.00
10638;BME280;47007;49.252;8.904;2022-12-20T01:45:13;100342.59;;;3.11;100.00
10638;BME280;47007;49.252;8.904;2022-12-20T01:46:00;100340.81;;;3.11;100.00
10638;BME280;47007;49.252;8.904;2022-12-20T01:46:42;100344.28;;;3.12;100.00
10638;BME280;47007;49.252;8.904;2022-12-20T01:47:25;100348.56;;;3.13;100.00
10638;BME280;47007;49.252;8.904;2022-12-20T01:48:11;100343.19;;;3.14;100.00
10638;BME280;47007;49.252;8.904;2022-12-20T01:49:50;100287.78;;;2.87;100.00
10638;BME280;47007;49.252;8.904;2022-12-20T01:50:35;100331.19;;;3.12;100.00
10638;BME280;47007;49.252;8.904;2022-12-20T01:51:17;100353.03;;;3.22;100.00
10638;BME280;47007;49.252;8.904;2022-12-20T01:52:11;100351.97;;;3.24;100.00
10638;BME280;47007;49.252;8.904;2022-12-20T01:52:55;100307.75;;;2.99;100.00
10638;BME280;47007;49.252;8.904;2022-12-20T01:53:39;100334.47;;;3.25;100.00
10638;BME280;47007;49.252;8.904;2022-12-20T01:54:25;100315.34;;;3.13;100.00
10638;BME280;47007;49.252;8.904;2022-12-20T01:55:16;100324.50;;;3.19;100.00
10638;BME280;47007;49.252;8.904;2022-12-20T01:56:03;100335.69;;;3.21;100.00
10638;BME280;47007;49.252;8.904;2022-12-20T01:56:56;100325.06;;;3.22;100.00
10638;BME280;47007;49.252;8.904;2022-12-20T01:57:46;100331.72;;;3.27;100.00
10638;BME280;47007;49.252;8.904;2022-12-20T01:58:29;100337.81;;;3.27;100.00
10638;BME280;47007;49.252;8.904;2022-12-20T01:59:14;100313.34;;;3.06;100.00
10638;BME280;47007;49.252;8.904;2022-12-20T01:59:56;100327.28;;;3.06;100.00
10638;BME280;47007;49.252;8.904;2022-12-20T02:00:39;100354.63;;;3.13;100.00
10638;BME280;47007;49.252;8.904;2022-12-20T02:01:24;100334.06;;;3.09;100.00
10638;BME280;47007;49.252;8.904;2022-12-20T02:02:08;100311.00;;;2.92;100.00
10638;BME280;47007;49.252;8.904;2022-12-20T02:02:51;100339.66;;;3.04;100.00
10638;BME280;47007;49.252;8.904;2022-12-20T02:03:34;100311.13;;;2.90;100.00
10638;BME280;47007;49.252;8.904;2022-12-20T02:04:16;100331.81;;;3.04;100.00
10638;BME280;47007;49.252;8.904;2022-12-20T02:04:58;100327.50;;;3.03;100.00
10638;BME280;47007;49.252;8.904;2022-12-20T02:05:42;100327.41;;;3.05;100.00
10638;BME280;47007;49.252;8.904;2022-12-20T02:06:26;100329.19;;;3.04;100.00
10638;BME280;47007;49.252;8.904;2022-12-20T02:07:18;100281.03;;;2.73;100.00
10638;BME280;47007;49.252;8.904;2022-12-20T02:08:03;100286.41;;;2.72;100.00
10638;BME280;47007;49.252;8.904;2022-12-20T02:08:46;100308.63;;;2.88;100.00
10638;BME280;47007;49.252;8.904;2022-12-20T02:09:30;100325.72;;;3.04;100.00
10638;BME280;47007;49.252;8.904;2022-12-20T02:10:14;100318.22;;;2.99;100.00
10638;BME280;47007;49.252;8.904;2022-12-20T02:11:10;100332.50;;;3.06;100.00
10638;BME280;47007;49.252;8.904;2022-12-20T02:13:03;100302.78;;;2.96;100.00
10638;BME280;47007;49.252;8.904;2022-12-20T02:15:52;100320.22;;;3.18;100.00
10638;BME280;47007;49.252;8.904;2022-12-20T02:16:48;100339.00;;;3.23;100.00
10638;BME280;47007;49.252;8.904;2022-12-20T02:18:44;100335.91;;;3.29;100.00
10638;BME280;47007;49.252;8.904;2022-12-20T02:19:53;100327.91;;;3.31;100.00
10638;BME280;47007;49.252;8.904;2022-12-20T02:20:50;100322.69;;;3.31;100.00
10638;BME280;47007;49.252;8.904;2022-12-20T02:21:42;100332.91;;;3.34;100.00
10638;BME280;47007;49.252;8.904;2022-12-20T02:28:03;100300.19;;;3.28;100.00
10638;BME280;47007;49.252;8.904;2022-12-20T02:29:06;100289.22;;;3.23;100.00
10638;BME280;47007;49.252;8.904;2022-12-20T02:30:40;100298.66;;;3.14;100.00
10638;BME280;47007;49.252;8.904;2022-12-20T02:31:28;100297.13;;;3.12;100.00
10638;BME280;47007;49.252;8.904;2022-12-20T02:32:22;100300.47;;;3.14;100.00
10638;BME280;47007;49.252;8.904;2022-12-20T02:33:10;100289.06;;;3.04;100.00
10638;BME280;47007;49.252;8.904;2022-12-20T02:33:54;100276.69;;;3.06;100.00
10638;BME280;47007;49.252;8.904;2022-12-20T02:34:38;100297.53;;;3.07;100.00
10638;BME280;47007;49.252;8.904;2022-12-20T02:35:23;100283.03;;;2.92;100.00
10638;BME280;47007;49.252;8.904;2022-12-20T02:36:06;100288.88;;;2.96;100.00
10638;BME280;47007;49.252;8.904;2022-12-20T02:36:51;100286.09;;;2.97;100.00
10638;BME280;47007;49.252;8.904;2022-12-20T02:37:32;100302.28;;;3.02;100.00
10638;BME280;47007;49.252;8.904;2022-12-20T02:38:33;100303.72;;;3.06;100.00
10638;BME280;47007;49.252;8.904;2022-12-20T02:39:16;100297.75;;;3.04;100.00
10638;BME280;47007;49.252;8.904;2022-12-20T02:39:57;100297.97;;;3.12;100.00
10638;BME280;47007;49.252;8.904;2022-12-20T02:40:41;100302.97;;;3.15;100.00
10638;BME280;47007;49.252;8.904;2022-12-20T02:41:49;100293.06;;;3.19;100.00
10638;BME280;47007;49.252;8.904;2022-12-20T02:42:32;100285.94;;;3.21;100.00
10638;BME280;47007;49.252;8.904;2022-12-20T02:43:14;100218.34;;;2.83;100.00
10638;BME280;47007;49.252;8.904;2022-12-20T02:44:17;100268.78;;;3.17;100.00
10638;BME280;47007;49.252;8.904;2022-12-20T02:45:21;100258.91;;;3.09;100.00
10638;BME280;47007;49.252;8.904;2022-12-20T02:46:06;100277.09;;;3.22;100.00
10638;BME280;47007;49.252;8.904;2022-12-20T02:46:59;100247.75;;;3.07;100.00
10638;BME280;47007;49.252;8.904;2022-12-20T02:47:47;100277.91;;;3.22;100.00
10638;BME280;47007;49.252;8.904;2022-12-20T02:48:36;100272.44;;;3.25;100.00
10638;BME280;47007;49.252;8.904;2022-12-20T02:49:22;100267.44;;;3.22;100.00
10638;BME280;47007;49.252;8.904;2022-12-20T02:50:09;100278.56;;;3.36;100.00
10638;BME280;47007;49.252;8.904;2022-12-20T02:50:53;100278.56;;;3.36;100.00
10638;BME280;47007;49.252;8.904;2022-12-20T02:51:37;100240.28;;;3.23;100.00
10638;BME280;47007;49.252;8.904;2022-12-20T02:52:21;100227.72;;;3.17;100.00
10638;BME280;47007;49.252;8.904;2022-12-20T02:53:07;100258.53;;;3.46;100.00
10638;BME280;47007;49.252;8.904;2022-12-20T02:53:51;100240.63;;;3.30;100.00
10638;BME280;47007;49.252;8.904;2022-12-20T02:54:35;100274.50;;;3.43;100.00
10638;BME280;47007;49.252;8.904;2022-12-20T02:55:19;100257.00;;;3.43;100.00
10638;BME280;47007;49.252;8.904;2022-12-20T02:57:17;100241.00;;;3.25;100.00
10638;BME280;47007;49.252;8.904;2022-12-20T02:58:05;100249.88;;;3.34;100.00
10638;BME280;47007;49.252;8.904;2022-12-20T02:59:57;100220.28;;;3.22;100.00
10638;BME280;47007;49.252;8.904;2022-12-20T03:00:48;100252.97;;;3.39;100.00
10638;BME280;47007;49.252;8.904;2022-12-20T03:01:40;100256.66;;;3.37;100.00
10638;BME280;47007;49.252;8.904;2022-12-20T03:02:25;100246.19;;;3.37;100.00
10638;BME280;47007;49.252;8.904;2022-12-20T03:03:08;100232.25;;;3.36;100.00
10638;BME280;47007;49.252;8.904;2022-12-20T03:04:06;100218.13;;;3.28;100.00
10638;BME280;47007;49.252;8.904;2022-12-20T03:04:49;100224.91;;;3.30;100.00
10638;BME280;47007;49.252;8.904;2022-12-20T03:05:34;100209.25;;;3.19;100.00
10638;BME280;47007;49.252;8.904;2022-12-20T03:06:16;100228.84;;;3.24;100.00
10638;BME280;47007;49.252;8.904;2022-12-20T03:07:06;100227.53;;;3.30;100.00
10638;BME280;47007;49.252;8.904;2022-12-20T03:07:52;100212.00;;;3.17;100.00
10638;BME280;47007;49.252;8.904;2022-12-20T03:08:36;100229.09;;;3.21;100.00
10638;BME280;47007;49.252;8.904;2022-12-20T03:09:18;100211.94;;;3.08;100.00
10638;BME280;47007;49.252;8.904;2022-12-20T03:10:00;100227.59;;;3.19;100.00
10638;BME280;47007;49.252;8.904;2022-12-20T03:10:42;100225.09;;;3.17;100.00
10638;BME280;47007;49.252;8.904;2022-12-20T03:11:24;100196.28;;;2.97;100.00
10638;BME280;47007;49.252;8.904;2022-12-20T03:12:07;100234.81;;;3.27;100.00
10638;BME280;47007;49.252;8.904;2022-12-20T03:12:51;100215.69;;;3.15;100.00
10638;BME280;47007;49.252;8.904;2022-12-20T03:13:32;100151.47;;;2.79;100.00
10638;BME280;47007;49.252;8.904;2022-12-20T03:14:19;100237.78;;;3.22;100.00
10638;BME280;47007;49.252;8.904;2022-12-20T03:15:03;100243.63;;;3.25;100.00
10638;BME280;47007;49.252;8.904;2022-12-20T03:15:44;100195.28;;;2.98;100.00
10638;BME280;47007;49.252;8.904;2022-12-20T03:16:26;100245.88;;;3.30;100.00
10638;BME280;47007;49.252;8.904;2022-12-20T03:17:08;100192.66;;;2.98;100.00
10638;BME280;47007;49.252;8.904;2022-12-20T03:17:52;100231.94;;;3.30;100.00
10638;BME280;47007;49.252;8.904;2022-12-20T03:18:33;100245.94;;;3.40;100.00
10638;BME280;47007;49.252;8.904;2022-12-20T03:19:15;100245.34;;;3.36;100.00
10638;BME280;47007;49.252;8.904;2022-12-20T03:19:57;100207.88;;;3.04;100.00
10638;BME280;47007;49.252;8.904;2022-12-20T03:20:39;100256.41;;;3.40;100.00
10638;BME280;47007;49.252;8.904;2022-12-20T03:21:20;100248.75;;;3.27;100.00
10638;BME280;47007;49.252;8.904;2022-12-20T03:22:02;100253.84;;;3.29;100.00
10638;BME280;47007;49.252;8.904;2022-12-20T03:22:45;100258.31;;;3.38;100.00
10638;BME280;47007;49.252;8.904;2022-12-20T03:23:27;100236.59;;;3.26;100.00
10638;BME280;47007;49.252;8.904;2022-12-20T03:24:11;100255.06;;;3.24;100.00
10638;BME280;47007;49.252;8.904;2022-12-20T03:24:54;100234.88;;;3.15;100.00
10638;BME280;47007;49.252;8.904;2022-12-20T03:25:36;100241.06;;;3.14;100.00
10638;BME280;47007;49.252;8.904;2022-12-20T03:26:19;100264.81;;;3.22;100.00
10638;BME280;47007;49.252;8.904;2022-12-20T03:27:06;100258.06;;;3.20;100.00
10638;BME280;47007;49.252;8.904;2022-12-20T03:27:48;100240.16;;;3.04;100.00
10638;BME280;47007;49.252;8.904;2022-12-20T03:28:30;100273.63;;;3.21;100.00
10638;BME280;47007;49.252;8.904;2022-12-20T03:29:12;100259.03;;;3.19;100.00
10638;BME280;47007;49.252;8.904;2022-12-20T03:29:54;100255.69;;;3.17;100.00
10638;BME280;47007;49.252;8.904;2022-12-20T03:30:36;100257.56;;;3.26;100.00
10638;BME280;47007;49.252;8.904;2022-12-20T03:31:18;100257.66;;;3.24;100.00
10638;BME280;47007;49.252;8.904;2022-12-20T03:32:05;100223.72;;;3.02;100.00
10638;BME280;47007;49.252;8.904;2022-12-20T03:32:53;100205.56;;;2.89;100.00
10638;BME280;47007;49.252;8.904;2022-12-20T03:33:35;100252.81;;;3.20;100.00
10638;BME280;47007;49.252;8.904;2022-12-20T03:34:20;100262.78;;;3.26;100.00
10638;BME280;47007;49.252;8.904;2022-12-20T03:35:02;100193.22;;;2.80;100.00
10638;BME280;47007;49.252;8.904;2022-12-20T03:35:49;100264.09;;;3.32;100.00
10638;BME280;47007;49.252;8.904;2022-12-20T03:36:32;100270.16;;;3.32;100.00
10638;BME280;47007;49.252;8.904;2022-12-20T03:37:17;100270.84;;;3.34;100.00
10638;BME280;47007;49.252;8.904;2022-12-20T03:37:58;100245.09;;;3.18;100.00
10638;BME280;47007;49.252;8.904;2022-12-20T03:38:40;100255.28;;;3.21;100.00
10638;BME280;47007;49.252;8.904;2022-12-20T03:39:22;100238.91;;;3.19;100.00
10638;BME280;47007;49.252;8.904;2022-12-20T03:40:07;100254.16;;;3.14;100.00
10638;BME280;47007;49.252;8.904;2022-12-20T03:40:49;100270.66;;;3.26;100.00
10638;BME280;47007;49.252;8.904;2022-12-20T03:41:34;100280.75;;;3.31;100.00
10638;BME280;47007;49.252;8.904;2022-12-20T03:42:16;100262.19;;;3.22;100.00
10638;BME280;47007;49.252;8.904;2022-12-20T03:42:58;100272.06;;;3.30;100.00
10638;BME280;47007;49.252;8.904;2022-12-20T03:43:40;100262.91;;;3.24;100.00
10638;BME280;47007;49.252;8.904;2022-12-20T03:44:22;100263.88;;;3.23;100.00
10638;BME280;47007;49.252;8.904;2022-12-20T03:45:09;100230.75;;;3.02;100.00
10638;BME280;47007;49.252;8.904;2022-12-20T03:45:51;100267.44;;;3.22;100.00
10638;BME280;47007;49.252;8.904;2022-12-20T03:46:34;100260.69;;;3.20;100.00
10638;BME280;47007;49.252;8.904;2022-12-20T03:47:17;100247.13;;;3.15;100.00
10638;BME280;47007;49.252;8.904;2022-12-20T03:48:00;100259.34;;;3.25;100.00
10638;BME280;47007;49.252;8.904;2022-12-20T03:48:44;100236.06;;;3.11;100.00
10638;BME280;47007;49.252;8.904;2022-12-20T03:49:26;100214.44;;;2.98;100.00
10638;BME280;47007;49.252;8.904;2022-12-20T03:50:09;100276.91;;;3.35;100.00
10638;BME280;47007;49.252;8.904;2022-12-20T03:50:50;100273.94;;;3.39;100.00
10638;BME280;47007;49.252;8.904;2022-12-20T03:51:32;100252.31;;;3.26;100.00
10638;BME280;47007;49.252;8.904;2022-12-20T03:52:15;100264.88;;;3.43;100.00
10638;BME280;47007;49.252;8.904;2022-12-20T03:52:56;100228.97;;;3.23;100.00
10638;BME280;47007;49.252;8.904;2022-12-20T03:53:39;100262.25;;;3.43;100.00
10638;BME280;47007;49.252;8.904;2022-12-20T03:54:21;100269.53;;;3.40;100.00
10638;BME280;47007;49.252;8.904;2022-12-20T03:55:18;100242.66;;;3.27;100.00
10638;BME280;47007;49.252;8.904;2022-12-20T03:55:59;100256.53;;;3.38;100.00
10638;BME280;47007;49.252;8.904;2022-12-20T03:56:41;100265.69;;;3.44;100.00
10638;BME280;47007;49.252;8.904;2022-12-20T03:57:23;100243.84;;;3.34;100.00
10638;BME280;47007;49.252;8.904;2022-12-20T03:58:06;100197.53;;;3.02;100.00
10638;BME280;47007;49.252;8.904;2022-12-20T03:58:51;100207.88;;;3.04;100.00
10638;BME280;47007;49.252;8.904;2022-12-20T03:59:33;100252.78;;;3.31;100.00
10638;BME280;47007;49.252;8.904;2022-12-20T04:00:17;100240.88;;;3.27;100.00
10638;BME280;47007;49.252;8.904;2022-12-20T04:01:01;100253.03;;;3.28;100.00
10638;BME280;47007;49.252;8.904;2022-12-20T04:01:51;100232.00;;;3.18;100.00
10638;BME280;47007;49.252;8.904;2022-12-20T04:02:36;100230.81;;;3.11;100.00
10638;BME280;47007;49.252;8.904;2022-12-20T04:03:18;100239.03;;;3.18;100.00
10638;BME280;47007;49.252;8.904;2022-12-20T04:04:00;100246.47;;;3.22;100.00
10638;BME280;47007;49.252;8.904;2022-12-20T04:04:42;100242.34;;;3.20;100.00
10638;BME280;47007;49.252;8.904;2022-12-20T04:05:23;100237.94;;;3.20;100.00
10638;BME280;47007;49.252;8.904;2022-12-20T04:06:05;100222.13;;;3.11;100.00